createdAt,value
2023-03-02T00:03:54.802Z,60.07
2023-03-02T00:18:57.121Z,59.145
2023-03-02T00:33:59.388Z,61.228
2023-03-02T00:49:01.821Z,59.729
2023-03-02T01:04:04.029Z,62.077
2023-03-02T01:19:06.265Z,61.929
2023-03-02T01:34:08.496Z,63.62
2023-03-02T01:49:10.749Z,65.885
2023-03-02T02:04:13.155Z,63.396
2023-03-02T02:19:15.457Z,63.317
2023-03-02T02:34:17.715Z,63.792
2023-03-02T02:49:20.046Z,61.854
2023-03-02T03:04:22.449Z,64.577
2023-03-02T03:19:24.774Z,64.756
2023-03-02T03:34:26.982Z,63.803
2023-03-02T03:49:29.158Z,62.658
2023-03-02T04:04:31.369Z,62.561
2023-03-02T04:19:33.736Z,62.033
2023-03-02T04:34:36.213Z,61.518
2023-03-02T04:49:38.476Z,62.602
2023-03-02T05:04:40.756Z,62.879
2023-03-02T05:19:43.074Z,60.943
2023-03-02T05:34:45.433Z,60.214
2023-03-02T05:49:47.685Z,60.307
2023-03-02T06:04:49.857Z,61.71
2023-03-02T06:19:52.113Z,61.835
2023-03-02T06:34:54.791Z,62.338
2023-03-02T06:49:57.146Z,62.242
2023-03-02T07:04:59.417Z,61.259
2023-03-02T07:20:01.900Z,64.063
2023-03-02T07:35:04.104Z,61.975
2023-03-02T07:50:06.615Z,62.117
2023-03-02T08:05:08.859Z,62.795
2023-03-02T08:20:11.068Z,62.331
2023-03-02T08:35:13.271Z,64.658
2023-03-02T08:50:15.552Z,63.987
2023-03-02T09:05:17.813Z,64.236
2023-03-02T09:20:19.983Z,63.229
2023-03-02T09:35:22.197Z,62.416
2023-03-02T10:05:35.670Z,67.862
2023-03-02T10:20:37.871Z,69.724
2023-03-02T10:35:40.458Z,68.629
2023-03-02T10:50:42.727Z,70.312
2023-03-02T11:05:45.116Z,69.681
2023-03-02T11:20:47.288Z,70.699
2023-03-02T11:35:49.565Z,70.7
2023-03-02T11:50:52.102Z,70.687
2023-03-02T12:05:54.608Z,68.789
2023-03-02T12:20:56.825Z,69.877
2023-03-02T12:35:59.115Z,72.847
2023-03-02T12:51:01.431Z,71.864
2023-03-02T13:06:03.864Z,66.94
2023-03-02T13:21:06.117Z,66.37
2023-03-02T13:36:08.592Z,65.792
2023-03-02T13:51:10.850Z,67.913
2023-03-02T14:06:13.091Z,67.559
2023-03-02T14:21:15.393Z,67.318
2023-03-02T14:36:17.669Z,66.918
2023-03-02T14:51:19.970Z,65.958
2023-03-02T15:06:22.190Z,65.418
2023-03-02T15:21:24.480Z,68.516
2023-03-02T15:36:26.686Z,68.946
2023-03-02T15:51:29.073Z,66.073
2023-03-02T16:06:31.363Z,66.791
2023-03-02T16:21:33.646Z,66.499
2023-03-02T16:36:35.937Z,66.305
2023-03-02T16:51:38.193Z,66.319
2023-03-02T17:06:43.498Z,66.834
2023-03-02T17:21:45.920Z,66.448
2023-03-02T17:36:48.232Z,66.315
2023-03-02T17:51:56.736Z,66.911
2023-03-02T18:06:59.007Z,66.342
2023-03-02T18:22:01.390Z,67.032
2023-03-02T18:37:03.484Z,66.864
2023-03-02T18:52:05.767Z,69.367
2023-03-02T19:07:07.983Z,70.218
2023-03-02T19:22:10.175Z,69.875
2023-03-02T19:37:19.575Z,70.354
2023-03-02T19:52:22.187Z,68.993
2023-03-02T20:07:24.483Z,67.894
2023-03-02T20:22:26.714Z,67.223
2023-03-02T20:37:28.987Z,67.046
2023-03-02T20:52:31.235Z,67.482
2023-03-02T21:07:33.515Z,68.904
2023-03-02T21:22:35.879Z,67.845
2023-03-02T21:37:38.172Z,67.414
2023-03-02T21:52:40.402Z,69.136
2023-03-02T22:07:42.658Z,69.143
2023-03-02T22:22:44.851Z,66.28
2023-03-02T22:37:47.080Z,65.574
2023-03-02T22:52:49.334Z,66.183
2023-03-02T23:07:51.770Z,70.199
2023-03-02T23:22:54.088Z,71.48
2023-03-02T23:37:56.313Z,69.633
2023-03-02T23:52:58.560Z,69.115
